createdAt,value
2018-04-25T00:01:16.471Z,6.23
2018-04-25T00:03:42.265Z,5.83
2018-04-25T00:06:08.036Z,6.20
2018-04-25T00:08:33.816Z,7.97
2018-04-25T00:10:59.568Z,8.60
2018-04-25T00:13:25.351Z,8.67
2018-04-25T00:15:51.101Z,8.87
2018-04-25T00:18:16.889Z,9.27
2018-04-25T00:20:42.659Z,9.70
2018-04-25T00:23:08.435Z,9.40
2018-04-25T00:25:34.183Z,11.00
2018-04-25T00:27:59.995Z,10.30
2018-04-25T00:30:25.779Z,10.00
2018-04-25T00:32:51.562Z,10.00
2018-04-25T00:35:17.335Z,12.00
2018-04-25T00:37:43.108Z,12.20
2018-04-25T00:40:08.851Z,11.47
2018-04-25T00:42:34.630Z,11.80
2018-04-25T00:45:00.407Z,12.40
2018-04-25T00:47:26.184Z,13.50
2018-04-25T00:49:51.962Z,12.10
2018-04-25T00:52:17.772Z,12.30
2018-04-25T00:54:43.544Z,13.87
2018-04-25T00:57:09.316Z,14.30
2018-04-25T00:59:35.084Z,13.97
2018-04-25T01:10:37.719Z,14.15
2018-04-25T01:13:03.490Z,16.37
2018-04-25T01:15:29.410Z,16.07
2018-04-25T01:17:55.196Z,16.53
2018-04-25T01:20:20.968Z,16.03
2018-04-25T01:22:46.727Z,18.80
2018-04-25T01:25:20.592Z,18.70
2018-04-25T01:27:48.064Z,18.20
2018-04-25T01:30:14.139Z,20.27
2018-04-25T01:32:39.959Z,20.83
2018-04-25T01:35:05.759Z,20.67
2018-04-25T01:37:34.344Z,22.70
2018-04-25T01:40:00.100Z,22.20
2018-04-25T01:42:27.788Z,22.00
2018-04-25T01:44:55.474Z,21.87
2018-04-25T01:47:32.110Z,23.17
2018-04-25T01:50:02.757Z,25.45
2018-04-25T01:52:40.925Z,25.62
2018-04-25T01:55:19.111Z,24.33
2018-04-25T01:57:57.204Z,27.37
2018-04-25T02:00:35.343Z,29.60
2018-04-25T02:03:01.003Z,33.15
2018-04-25T02:05:26.996Z,33.57
2018-04-25T02:07:52.747Z,39.77
2018-04-25T02:10:18.835Z,36.13
2018-04-25T02:12:44.592Z,40.78
2018-04-25T02:15:10.580Z,40.60
2018-04-25T02:17:36.368Z,43.50
2018-04-25T02:20:02.151Z,44.50
2018-04-25T02:22:27.904Z,44.00
2018-04-25T02:24:53.663Z,45.07
2018-04-25T02:27:19.424Z,44.20
2018-04-25T02:29:45.207Z,45.30
2018-04-25T02:32:10.966Z,46.00
2018-04-25T02:34:36.731Z,44.83
2018-04-25T02:37:02.502Z,47.33
2018-04-25T02:39:28.260Z,45.40
2018-04-25T02:41:54.037Z,47.40
2018-04-25T02:44:19.789Z,47.93
2018-04-25T02:46:45.601Z,49.60
2018-04-25T02:49:11.358Z,48.17
2018-04-25T02:51:37.152Z,46.90
2018-04-25T02:54:02.916Z,45.23
2018-04-25T02:56:28.700Z,46.17
2018-04-25T02:58:54.447Z,43.90
2018-04-25T03:01:20.259Z,43.83
2018-04-25T03:03:46.016Z,45.23
2018-04-25T03:06:11.831Z,45.10
2018-04-25T03:08:37.575Z,45.70
2018-04-25T03:11:03.352Z,43.07
2018-04-25T03:13:29.104Z,45.47
2018-04-25T03:15:54.888Z,44.47
2018-04-25T03:18:20.640Z,42.90
2018-04-25T03:20:46.424Z,45.30
2018-04-25T03:23:12.180Z,44.57
2018-04-25T03:25:37.975Z,41.73
2018-04-25T03:28:03.715Z,43.93
2018-04-25T03:30:29.684Z,43.87
2018-04-25T03:32:55.487Z,40.07
2018-04-25T03:35:21.252Z,42.87
2018-04-25T03:37:46.999Z,40.33
2018-04-25T03:40:12.766Z,41.17
2018-04-25T03:42:38.534Z,39.20
2018-04-25T03:45:04.311Z,39.30
2018-04-25T03:47:30.092Z,40.90
2018-04-25T03:49:55.847Z,40.33
2018-04-25T03:52:21.616Z,38.97
2018-04-25T03:54:47.364Z,36.60
2018-04-25T03:57:13.380Z,39.10
2018-04-25T03:59:39.136Z,39.90
2018-04-25T04:02:04.911Z,39.90
2018-04-25T04:04:30.658Z,39.27
2018-04-25T04:06:56.448Z,38.40
2018-04-25T04:09:22.193Z,37.57
2018-04-25T04:11:47.967Z,38.93
2018-04-25T04:14:13.709Z,37.53
2018-04-25T04:16:39.895Z,40.07
2018-04-25T04:19:05.668Z,37.40
2018-04-25T04:21:31.430Z,39.30
2018-04-25T04:23:57.192Z,38.43
2018-04-25T04:26:22.968Z,36.10
2018-04-25T04:28:48.712Z,36.50
2018-04-25T04:31:14.490Z,38.07
2018-04-25T04:33:40.227Z,35.17
2018-04-25T04:36:06.020Z,37.33
2018-04-25T04:38:31.779Z,35.77
2018-04-25T04:40:57.560Z,34.10
2018-04-25T04:43:23.307Z,34.20
2018-04-25T04:45:49.078Z,36.03
2018-04-25T04:48:14.898Z,35.37
2018-04-25T04:50:40.648Z,35.90
2018-04-25T04:53:06.419Z,34.00
2018-04-25T04:55:32.159Z,34.40
2018-04-25T04:57:57.927Z,32.10
2018-04-25T05:00:23.707Z,34.63
2018-04-25T05:02:49.472Z,32.67
2018-04-25T05:05:15.246Z,32.30
2018-04-25T05:07:41.090Z,31.47
2018-04-25T05:10:06.895Z,31.63
2018-04-25T05:12:32.703Z,30.77
2018-04-25T05:14:58.447Z,31.33
2018-04-25T05:17:24.228Z,32.20
2018-04-25T05:19:49.983Z,28.43
2018-04-25T05:22:15.766Z,29.00
2018-04-25T05:24:41.538Z,28.53
2018-04-25T05:27:07.304Z,25.57
2018-04-25T05:29:33.067Z,30.13
2018-04-25T05:31:58.867Z,28.43
2018-04-25T05:34:24.601Z,27.60
2018-04-25T05:36:50.376Z,28.10
2018-04-25T05:39:16.152Z,28.57
2018-04-25T05:41:41.908Z,25.80
2018-04-25T05:44:07.682Z,25.30
2018-04-25T05:46:33.770Z,27.07
2018-04-25T05:48:59.539Z,26.30
2018-04-25T05:51:25.329Z,28.40
2018-04-25T05:53:51.111Z,26.37
2018-04-25T05:56:16.855Z,25.67
2018-04-25T05:58:42.624Z,24.37
2018-04-25T06:01:08.383Z,24.57
2018-04-25T06:03:34.159Z,24.30
2018-04-25T06:05:59.918Z,24.87
2018-04-25T06:08:25.700Z,23.60
2018-04-25T06:10:51.459Z,22.63
2018-04-25T06:13:17.251Z,21.47
2018-04-25T06:15:42.994Z,22.80
2018-04-25T06:18:08.812Z,22.97
2018-04-25T06:20:34.560Z,22.20
2018-04-25T06:23:00.360Z,21.27
2018-04-25T06:25:26.135Z,21.90
2018-04-25T06:27:51.906Z,21.20
2018-04-25T06:30:17.664Z,22.53
2018-04-25T06:32:43.431Z,19.33
2018-04-25T06:35:09.219Z,21.47
2018-04-25T06:37:35.017Z,18.27
2018-04-25T06:40:00.837Z,19.63
2018-04-25T06:42:26.541Z,20.20
2018-04-25T06:44:52.371Z,17.20
2018-04-25T06:47:18.086Z,18.77
2018-04-25T06:49:43.876Z,17.73
2018-04-25T06:52:09.707Z,15.70
2018-04-25T06:54:35.495Z,18.63
2018-04-25T06:57:01.606Z,17.50
2018-04-25T06:59:27.374Z,17.43
2018-04-25T07:01:53.123Z,15.60
2018-04-25T07:04:18.903Z,15.10
2018-04-25T07:06:44.645Z,12.70
2018-04-25T07:09:10.428Z,13.13
2018-04-25T07:11:36.196Z,12.20
2018-04-25T07:14:02.076Z,11.00
2018-04-25T07:16:27.763Z,11.53
2018-04-25T07:18:53.540Z,11.13
2018-04-25T07:21:19.300Z,12.93
2018-04-25T07:23:45.154Z,13.60
2018-04-25T07:26:10.853Z,10.70
2018-04-25T07:28:36.648Z,10.00
2018-04-25T07:31:02.390Z,10.40
2018-04-25T07:33:28.185Z,10.30
2018-04-25T07:35:53.948Z,8.80
2018-04-25T07:38:19.727Z,8.77
2018-04-25T07:40:45.472Z,8.03
2018-04-25T07:43:11.266Z,7.20
2018-04-25T07:45:37.360Z,7.10
2018-04-25T07:48:03.279Z,7.00
2018-04-25T07:50:29.067Z,5.70
2018-04-25T07:52:54.820Z,5.53
2018-04-25T07:55:20.627Z,6.27
2018-04-25T07:57:46.468Z,6.13
2018-04-25T08:00:12.164Z,6.43
2018-04-25T08:02:37.923Z,6.23
2018-04-25T08:05:03.693Z,5.60
2018-04-25T08:07:29.449Z,5.33
2018-04-25T08:09:55.213Z,5.60
2018-04-25T08:12:33.439Z,5.83
2018-04-25T08:15:11.550Z,5.43
2018-04-25T08:17:49.606Z,5.10
2018-04-25T08:20:27.676Z,4.80
2018-04-25T08:22:53.439Z,5.30
2018-04-25T08:25:19.230Z,4.03
2018-04-25T08:27:44.975Z,4.83
2018-04-25T08:30:10.766Z,4.87
2018-04-25T08:32:36.511Z,3.80
2018-04-25T08:35:02.284Z,3.47
2018-04-25T08:37:28.051Z,4.00
2018-04-25T08:39:53.827Z,3.80
2018-04-25T08:42:19.581Z,3.90
2018-04-25T08:44:45.412Z,3.43
2018-04-25T08:47:11.135Z,3.50
2018-04-25T08:49:36.939Z,2.73
2018-04-25T08:52:02.712Z,3.30
2018-04-25T08:54:28.476Z,2.80
2018-04-25T08:56:54.302Z,2.13
2018-04-25T08:59:20.064Z,2.87
2018-04-25T09:01:45.835Z,2.00
2018-04-25T09:04:11.604Z,1.80
2018-04-25T09:06:37.368Z,2.30
2018-04-25T09:09:03.139Z,2.77
2018-04-25T09:11:28.903Z,2.33
2018-04-25T09:13:54.661Z,1.73
2018-04-25T09:16:20.440Z,2.07
2018-04-25T09:18:46.230Z,1.90
2018-04-25T09:21:11.980Z,2.20
2018-04-25T09:23:37.987Z,1.63
2018-04-25T09:26:03.760Z,1.30
2018-04-25T09:28:29.515Z,6.83
2018-04-25T09:30:55.274Z,2.03
2018-04-25T09:33:21.301Z,4.30
2018-04-25T09:35:47.084Z,2.00
2018-04-25T09:38:12.830Z,2.30
2018-04-25T09:40:38.616Z,2.40
2018-04-25T09:43:04.386Z,2.17
2018-04-25T09:45:30.159Z,0.93
2018-04-25T09:47:55.979Z,1.20
2018-04-25T09:50:21.722Z,1.33
2018-04-25T09:52:47.479Z,1.77
2018-04-25T09:55:13.268Z,1.90
2018-04-25T09:57:39.101Z,2.00
2018-04-25T10:00:04.802Z,1.47
2018-04-25T10:02:32.559Z,1.60
2018-04-25T10:04:58.336Z,1.90
2018-04-25T10:07:24.099Z,1.77
2018-04-25T10:09:49.862Z,1.80
2018-04-25T10:12:15.615Z,2.03
2018-04-25T10:14:41.399Z,1.70
2018-04-25T10:17:07.228Z,2.60
2018-04-25T10:19:32.971Z,2.40
2018-04-25T10:21:58.754Z,2.50
2018-04-25T10:24:24.512Z,3.50
2018-04-25T10:26:50.320Z,3.20
2018-04-25T10:29:16.132Z,2.23
2018-04-25T10:31:41.884Z,2.13
2018-04-25T10:34:07.640Z,2.00
2018-04-25T10:36:33.455Z,2.33
2018-04-25T10:38:59.276Z,1.90
2018-04-25T10:41:25.000Z,1.77
2018-04-25T10:43:50.782Z,1.20
2018-04-25T10:46:16.551Z,1.67
2018-04-25T10:48:42.328Z,0.80
2018-04-25T10:51:08.082Z,0.73
2018-04-25T10:53:33.857Z,1.00
2018-04-25T10:55:59.805Z,0.87
2018-04-25T10:58:25.575Z,0.80
2018-04-25T11:00:51.330Z,1.00
2018-04-25T11:03:17.135Z,0.83
2018-04-25T11:05:42.875Z,0.57
2018-04-25T11:08:08.631Z,0.93
2018-04-25T11:10:34.437Z,0.70
2018-04-25T11:13:00.189Z,0.80
2018-04-25T11:15:25.952Z,0.90
2018-04-25T11:17:51.710Z,1.00
2018-04-25T11:20:17.496Z,1.30
2018-04-25T11:22:43.305Z,0.70
2018-04-25T11:25:09.068Z,1.00
2018-04-25T11:27:34.859Z,1.17
2018-04-25T11:30:00.636Z,0.70
2018-04-25T11:32:26.397Z,1.30
2018-04-25T11:34:52.159Z,1.93
2018-04-25T11:37:17.938Z,1.20
2018-04-25T11:39:43.795Z,1.00
2018-04-25T11:42:09.588Z,1.10
2018-04-25T11:44:35.371Z,1.00
2018-04-25T11:47:01.152Z,1.00
2018-04-25T11:49:26.900Z,1.37
2018-04-25T11:51:52.656Z,1.27
2018-04-25T11:54:18.408Z,1.27
2018-04-25T11:56:44.255Z,1.40
2018-04-25T11:59:10.036Z,1.10
2018-04-25T12:01:35.783Z,1.17
2018-04-25T12:04:01.583Z,1.20
2018-04-25T12:06:27.447Z,0.70
2018-04-25T12:08:53.204Z,1.23
2018-04-25T12:11:18.971Z,1.23
2018-04-25T12:13:44.747Z,1.00
2018-04-25T12:16:10.532Z,1.40
2018-04-25T12:18:36.291Z,0.97
2018-04-25T12:21:02.042Z,1.17
2018-04-25T12:23:27.808Z,1.10
2018-04-25T12:31:45.557Z,0.90
2018-04-25T12:34:11.320Z,0.93
2018-04-25T12:36:37.089Z,0.83
2018-04-25T12:39:02.874Z,1.50
2018-04-25T12:41:28.640Z,1.40
2018-04-25T12:43:54.409Z,1.30
2018-04-25T12:46:20.179Z,1.20
2018-04-25T12:48:45.927Z,0.90
2018-04-25T12:51:11.708Z,1.27
2018-04-25T12:53:37.703Z,1.53
2018-04-25T12:56:03.463Z,1.17
2018-04-25T12:58:29.263Z,0.80
2018-04-25T13:00:55.082Z,0.80
2018-04-25T13:03:20.843Z,1.93
2018-04-25T13:05:46.589Z,1.20
2018-04-25T13:08:12.373Z,1.07
2018-04-25T13:10:38.175Z,0.97
2018-04-25T13:13:03.927Z,1.13
2018-04-25T13:15:29.700Z,1.10
2018-04-25T13:17:55.488Z,1.00
2018-04-25T13:20:21.293Z,1.13
2018-04-25T13:22:47.035Z,1.20
2018-04-25T13:25:12.803Z,1.30
2018-04-25T13:27:38.564Z,1.43
2018-04-25T13:30:04.356Z,0.90
2018-04-25T13:32:30.124Z,1.30
2018-04-25T13:34:55.916Z,1.27
2018-04-25T13:37:21.685Z,1.10
2018-04-25T13:39:47.450Z,0.70
2018-04-25T13:42:13.195Z,0.87
2018-04-25T13:44:38.969Z,1.13
2018-04-25T13:47:04.773Z,1.00
2018-04-25T13:49:30.599Z,0.93
2018-04-25T13:51:56.340Z,1.07
2018-04-25T13:54:22.104Z,1.20
2018-04-25T13:56:47.928Z,1.03
2018-04-25T13:59:13.696Z,1.20
2018-04-25T14:01:39.481Z,0.80
2018-04-25T14:04:05.243Z,1.17
2018-04-25T14:06:30.996Z,0.83
2018-04-25T14:08:56.752Z,0.97
2018-04-25T14:11:22.531Z,1.60
2018-04-25T14:13:48.288Z,1.10
2018-04-25T14:16:14.051Z,1.00
2018-04-25T14:18:39.828Z,1.17
2018-04-25T14:21:05.595Z,1.23
2018-04-25T14:23:31.367Z,0.90
2018-04-25T14:25:57.117Z,0.70
2018-04-25T14:28:22.958Z,1.00
2018-04-25T14:30:48.756Z,0.90
2018-04-25T14:33:14.505Z,1.30
2018-04-25T14:35:40.267Z,1.00
2018-04-25T14:38:06.016Z,0.93
2018-04-25T14:40:31.816Z,1.30
2018-04-25T14:42:57.568Z,0.97
2018-04-25T14:45:23.339Z,1.20
2018-04-25T14:47:49.091Z,0.87
2018-04-25T14:50:14.888Z,1.37
2018-04-25T14:52:40.641Z,0.87
2018-04-25T14:55:06.432Z,1.30
2018-04-25T14:57:32.175Z,1.13
2018-04-25T14:59:57.963Z,1.30
2018-04-25T15:02:23.707Z,1.20
2018-04-25T15:04:50.078Z,1.10
2018-04-25T15:07:15.851Z,1.40
2018-04-25T15:09:41.603Z,0.90
2018-04-25T15:12:07.362Z,1.50
2018-04-25T15:14:33.127Z,1.80
2018-04-25T15:16:58.909Z,1.20
2018-04-25T15:19:24.685Z,1.00
2018-04-25T15:21:50.436Z,0.80
2018-04-25T15:24:16.208Z,1.33
2018-04-25T15:26:41.987Z,1.27
2018-04-25T15:29:07.730Z,1.20
2018-04-25T15:31:33.711Z,1.10
2018-04-25T15:33:59.464Z,1.10
2018-04-25T15:36:25.229Z,1.00
2018-04-25T15:38:50.966Z,1.00
2018-04-25T15:41:16.758Z,0.80
2018-04-25T15:43:42.511Z,0.87
2018-04-25T15:46:08.291Z,0.70
2018-04-25T15:48:34.055Z,0.80
2018-04-25T15:50:59.830Z,1.10
2018-04-25T15:53:25.666Z,0.80
2018-04-25T15:55:51.387Z,0.90
2018-04-25T15:58:17.131Z,0.63
2018-04-25T16:00:42.918Z,0.60
2018-04-25T16:03:08.664Z,0.70
2018-04-25T16:05:34.443Z,0.80
2018-04-25T16:08:00.183Z,0.77
2018-04-25T16:10:25.968Z,0.80
2018-04-25T16:12:51.719Z,0.87
2018-04-25T16:15:17.503Z,0.87
2018-04-25T16:17:43.242Z,1.00
2018-04-25T16:20:08.990Z,0.83
2018-04-25T16:22:34.765Z,1.00
2018-04-25T16:25:00.903Z,1.27
2018-04-25T16:27:26.672Z,1.10
2018-04-25T16:29:52.440Z,0.80
2018-04-25T16:32:18.195Z,1.07
2018-04-25T16:34:43.966Z,0.80
2018-04-25T16:37:09.723Z,0.97
2018-04-25T16:39:35.479Z,0.97
2018-04-25T16:42:01.255Z,1.10
2018-04-25T16:44:27.020Z,0.83
2018-04-25T16:46:53.088Z,0.90
2018-04-25T16:49:18.864Z,1.03
2018-04-25T16:51:44.623Z,0.80
2018-04-25T16:54:10.384Z,0.70
2018-04-25T16:56:36.456Z,0.73
2018-04-25T16:59:02.228Z,1.33
2018-04-25T17:01:28.027Z,0.80
2018-04-25T17:03:53.776Z,0.50
2018-04-25T17:06:20.107Z,0.80
2018-04-25T17:08:45.860Z,0.60
2018-04-25T17:11:11.614Z,0.87
2018-04-25T17:13:37.371Z,0.70
2018-04-25T17:16:03.179Z,0.60
2018-04-25T17:18:28.924Z,0.70
2018-04-25T17:20:54.680Z,0.47
2018-04-25T17:23:20.429Z,0.90
2018-04-25T17:25:46.215Z,0.50
2018-04-25T17:28:11.943Z,0.70
2018-04-25T17:30:37.686Z,0.60
2018-04-25T17:33:03.461Z,0.80
2018-04-25T17:35:29.387Z,0.73
2018-04-25T17:37:55.188Z,0.80
2018-04-25T17:40:20.951Z,1.10
2018-04-25T17:42:46.721Z,0.70
2018-04-25T17:45:12.466Z,1.10
2018-04-25T17:47:38.455Z,1.20
2018-04-25T17:50:04.220Z,1.00
2018-04-25T17:52:30.015Z,0.63
2018-04-25T17:54:55.812Z,1.30
2018-04-25T17:57:21.580Z,0.50
2018-04-25T17:59:47.349Z,0.73
2018-04-25T18:02:13.357Z,0.60
2018-04-25T18:04:39.123Z,0.93
2018-04-25T18:07:04.915Z,0.77
2018-04-25T18:09:30.658Z,0.70
2018-04-25T18:11:56.574Z,0.90
2018-04-25T18:14:22.380Z,1.00
2018-04-25T18:16:48.194Z,0.70
2018-04-25T18:19:13.906Z,0.80
2018-04-25T18:21:39.680Z,1.17
2018-04-25T18:24:05.435Z,1.00
2018-04-25T18:26:31.444Z,0.80
2018-04-25T18:28:57.236Z,1.23
2018-04-25T18:31:23.008Z,0.77
2018-04-25T18:33:48.767Z,1.20
2018-04-25T18:36:14.527Z,1.40
2018-04-25T18:38:40.285Z,1.20
2018-04-25T18:41:06.075Z,1.57
2018-04-25T18:43:31.888Z,0.90
2018-04-25T18:45:57.632Z,0.90
2018-04-25T18:48:23.414Z,0.83
2018-04-25T18:50:49.172Z,1.00
2018-04-25T18:53:14.987Z,1.13
2018-04-25T18:55:40.727Z,0.80
2018-04-25T18:58:06.688Z,1.23
2018-04-25T19:00:32.442Z,0.90
2018-04-25T19:02:58.215Z,1.17
2018-04-25T19:05:23.967Z,1.37
2018-04-25T19:07:49.727Z,1.47
2018-04-25T19:10:15.503Z,1.50
2018-04-25T19:12:41.320Z,1.50
2018-04-25T19:15:07.080Z,2.17
2018-04-25T19:17:32.902Z,1.60
2018-04-25T19:19:58.672Z,1.63
2018-04-25T19:22:31.328Z,1.73
2018-04-25T19:24:57.082Z,1.33
2018-04-25T19:27:22.871Z,1.77
2018-04-25T19:29:48.629Z,2.10
2018-04-25T19:32:14.416Z,1.80
2018-04-25T19:34:40.159Z,2.30
2018-04-25T19:37:05.950Z,1.83
2018-04-25T19:39:31.698Z,1.57
2018-04-25T19:41:57.474Z,1.93
2018-04-25T19:44:23.243Z,1.10
2018-04-25T19:46:49.004Z,1.80
2018-04-25T19:49:14.815Z,1.70
2018-04-25T19:51:40.786Z,1.87
2018-04-25T19:54:06.567Z,2.50
2018-04-25T19:56:32.303Z,1.57
2018-04-25T19:58:58.071Z,2.10
2018-04-25T20:01:23.843Z,1.60
2018-04-25T20:03:49.631Z,1.77
2018-04-25T20:06:15.399Z,2.00
2018-04-25T20:08:41.157Z,1.90
2018-04-25T20:11:06.930Z,1.60
2018-04-25T20:13:32.720Z,2.13
2018-04-25T20:15:58.480Z,2.10
2018-04-25T20:18:24.235Z,1.63
2018-04-25T20:20:49.984Z,2.33
2018-04-25T20:23:15.751Z,2.30
2018-04-25T20:25:41.526Z,2.10
2018-04-25T20:28:07.340Z,1.70
2018-04-25T20:30:33.096Z,1.83
2018-04-25T20:32:58.903Z,1.80
2018-04-25T20:35:24.697Z,1.93
2018-04-25T20:37:50.505Z,2.20
2018-04-25T20:40:16.263Z,1.83
2018-04-25T20:42:42.037Z,2.67
2018-04-25T20:45:07.790Z,2.23
2018-04-25T20:47:33.605Z,2.30
2018-04-25T20:49:59.359Z,2.20
2018-04-25T20:52:25.112Z,2.87
2018-04-25T20:54:50.898Z,1.73
2018-04-25T20:57:16.715Z,2.13
2018-04-25T20:59:42.515Z,2.97
2018-04-25T21:02:08.308Z,3.00
2018-04-25T21:04:34.078Z,2.63
2018-04-25T21:06:59.831Z,3.00
2018-04-25T21:09:25.626Z,2.57
2018-04-25T21:11:51.367Z,3.00
2018-04-25T21:14:17.141Z,3.37
2018-04-25T21:16:42.895Z,3.07
2018-04-25T21:19:08.676Z,3.43
2018-04-25T21:21:34.426Z,3.20
2018-04-25T21:24:00.264Z,2.70
2018-04-25T21:26:25.951Z,3.40
2018-04-25T21:28:51.727Z,3.60
2018-04-25T21:31:17.539Z,3.10
2018-04-25T21:33:43.253Z,3.97
2018-04-25T21:36:08.995Z,4.90
2018-04-25T21:38:34.784Z,4.37
2018-04-25T21:41:00.538Z,3.40
2018-04-25T21:43:26.300Z,3.87
2018-04-25T21:45:52.048Z,4.17
2018-04-25T21:48:17.996Z,4.20
2018-04-25T21:50:43.759Z,3.70
2018-04-25T21:53:09.537Z,4.40
2018-04-25T21:55:35.295Z,4.87
2018-04-25T21:58:01.176Z,5.00
2018-04-25T22:00:26.887Z,4.83
2018-04-25T22:02:52.653Z,4.77
2018-04-25T22:05:18.398Z,4.57
2018-04-25T22:07:44.148Z,5.20
2018-04-25T22:10:09.923Z,5.00
2018-04-25T22:12:35.691Z,4.67
2018-04-25T22:15:01.459Z,5.07
2018-04-25T22:17:27.245Z,5.70
2018-04-25T22:19:53.023Z,5.30
2018-04-25T22:22:18.771Z,5.53
2018-04-25T22:24:44.535Z,6.57
2018-04-25T22:27:10.301Z,5.97
2018-04-25T22:29:36.067Z,7.40
2018-04-25T22:32:01.817Z,7.10
2018-04-25T22:34:27.589Z,6.50
2018-04-25T22:36:53.347Z,6.83
2018-04-25T22:39:19.123Z,6.10
2018-04-25T22:41:44.871Z,6.33
2018-04-25T22:44:10.646Z,6.50
2018-04-25T22:46:36.419Z,7.40
2018-04-25T22:49:02.211Z,7.23
2018-04-25T22:51:27.960Z,7.07
2018-04-25T22:59:38.412Z,7.65
2018-04-25T23:02:04.195Z,7.77
2018-04-25T23:04:29.969Z,7.80
2018-04-25T23:06:55.715Z,8.90
2018-04-25T23:09:21.483Z,8.70
2018-04-25T23:11:47.227Z,7.80
2018-04-25T23:14:13.024Z,8.37
2018-04-25T23:16:38.763Z,9.67
2018-04-25T23:19:04.563Z,9.00
2018-04-25T23:21:30.299Z,9.17
2018-04-25T23:23:56.077Z,9.60
2018-04-25T23:26:21.832Z,9.93
2018-04-25T23:28:47.591Z,10.23
2018-04-25T23:31:13.347Z,10.20
2018-04-25T23:33:39.708Z,9.87
2018-04-25T23:36:05.495Z,8.93
2018-04-25T23:38:31.259Z,10.20
2018-04-25T23:40:57.021Z,9.93
2018-04-25T23:43:22.770Z,10.20
2018-04-25T23:45:49.416Z,11.48
2018-04-25T23:48:15.171Z,9.43
2018-04-25T23:50:40.952Z,9.10
2018-04-25T23:53:06.789Z,9.43
2018-04-25T23:55:32.579Z,10.83
2018-04-25T23:57:58.356Z,9.73
